sensor_id;sensor_type;location;lat;lon;timestamp;P1;durP1;ratioP1;P2;durP2;ratioP2
63342;SDS011;49465;57.664;39.686;2024-03-29T00:02:29;8.18;;;4.75;;
63342;SDS011;49465;57.664;39.686;2024-03-29T00:05:01;7.65;;;5.00;;
63342;SDS011;49465;57.664;39.686;2024-03-29T00:07:34;8.75;;;5.15;;
63342;SDS011;49465;57.664;39.686;2024-03-29T00:10:06;9.50;;;5.43;;
63342;SDS011;49465;57.664;39.686;2024-03-29T00:12:32;9.40;;;5.30;;
63342;SDS011;49465;57.664;39.686;2024-03-29T00:15:07;9.23;;;5.65;;
63342;SDS011;49465;57.664;39.686;2024-03-29T00:17:36;9.90;;;5.53;;
63342;SDS011;49465;57.664;39.686;2024-03-29T00:20:06;8.95;;;5.47;;
63342;SDS011;49465;57.664;39.686;2024-03-29T00:22:36;8.93;;;5.30;;
63342;SDS011;49465;57.664;39.686;2024-03-29T00:25:22;10.18;;;5.75;;
63342;SDS011;49465;57.664;39.686;2024-03-29T00:27:51;10.32;;;6.03;;
63342;SDS011;49465;57.664;39.686;2024-03-29T00:30:20;10.52;;;6.40;;
63342;SDS011;49465;57.664;39.686;2024-03-29T00:32:52;10.95;;;6.10;;
63342;SDS011;49465;57.664;39.686;2024-03-29T00:35:21;11.23;;;6.38;;
63342;SDS011;49465;57.664;39.686;2024-03-29T00:37:51;10.48;;;6.50;;
63342;SDS011;49465;57.664;39.686;2024-03-29T00:40:20;11.90;;;6.65;;
63342;SDS011;49465;57.664;39.686;2024-03-29T00:42:49;11.20;;;6.18;;
63342;SDS011;49465;57.664;39.686;2024-03-29T00:45:19;12.35;;;6.72;;
63342;SDS011;49465;57.664;39.686;2024-03-29T00:47:51;10.20;;;6.43;;
63342;SDS011;49465;57.664;39.686;2024-03-29T00:50:21;12.13;;;6.45;;
63342;SDS011;49465;57.664;39.686;2024-03-29T00:52:53;14.02;;;6.70;;
63342;SDS011;49465;57.664;39.686;2024-03-29T00:55:22;10.70;;;7.00;;
63342;SDS011;49465;57.664;39.686;2024-03-29T00:57:51;12.38;;;6.88;;
63342;SDS011;49465;57.664;39.686;2024-03-29T01:00:20;11.55;;;7.13;;
63342;SDS011;49465;57.664;39.686;2024-03-29T01:02:53;11.45;;;7.05;;
63342;SDS011;49465;57.664;39.686;2024-03-29T01:05:22;11.95;;;6.90;;
63342;SDS011;49465;57.664;39.686;2024-03-29T01:07:52;11.80;;;7.40;;
63342;SDS011;49465;57.664;39.686;2024-03-29T01:10:30;12.13;;;7.15;;
63342;SDS011;49465;57.664;39.686;2024-03-29T01:13:05;14.52;;;7.63;;
63342;SDS011;49465;57.664;39.686;2024-03-29T01:15:40;12.38;;;7.82;;
63342;SDS011;49465;57.664;39.686;2024-03-29T01:18:11;15.68;;;7.82;;
63342;SDS011;49465;57.664;39.686;2024-03-29T01:20:45;13.07;;;7.70;;
63342;SDS011;49465;57.664;39.686;2024-03-29T01:23:17;14.70;;;8.00;;
63342;SDS011;49465;57.664;39.686;2024-03-29T01:25:56;13.05;;;7.80;;
63342;SDS011;49465;57.664;39.686;2024-03-29T01:28:26;12.15;;;7.47;;
63342;SDS011;49465;57.664;39.686;2024-03-29T01:31:00;16.15;;;7.70;;
63342;SDS011;49465;57.664;39.686;2024-03-29T01:33:30;13.48;;;7.90;;
63342;SDS011;49465;57.664;39.686;2024-03-29T01:36:07;13.98;;;7.95;;
63342;SDS011;49465;57.664;39.686;2024-03-29T01:38:36;12.63;;;7.53;;
63342;SDS011;49465;57.664;39.686;2024-03-29T01:41:07;14.07;;;7.88;;
63342;SDS011;49465;57.664;39.686;2024-03-29T01:43:38;15.10;;;8.05;;
63342;SDS011;49465;57.664;39.686;2024-03-29T01:46:07;13.18;;;7.13;;
63342;SDS011;49465;57.664;39.686;2024-03-29T01:48:42;13.52;;;7.70;;
63342;SDS011;49465;57.664;39.686;2024-03-29T01:51:14;14.07;;;7.43;;
63342;SDS011;49465;57.664;39.686;2024-03-29T01:53:47;16.75;;;8.07;;
63342;SDS011;49465;57.664;39.686;2024-03-29T01:56:24;14.05;;;7.65;;
63342;SDS011;49465;57.664;39.686;2024-03-29T01:58:59;15.10;;;7.70;;
63342;SDS011;49465;57.664;39.686;2024-03-29T02:01:31;13.82;;;7.95;;
63342;SDS011;49465;57.664;39.686;2024-03-29T02:04:09;16.88;;;7.72;;
63342;SDS011;49465;57.664;39.686;2024-03-29T02:06:39;15.70;;;7.88;;
63342;SDS011;49465;57.664;39.686;2024-03-29T02:09:09;16.15;;;8.20;;
63342;SDS011;49465;57.664;39.686;2024-03-29T02:11:40;16.45;;;8.07;;
63342;SDS011;49465;57.664;39.686;2024-03-29T02:14:16;14.85;;;8.13;;
63342;SDS011;49465;57.664;39.686;2024-03-29T02:16:53;14.43;;;8.10;;
63342;SDS011;49465;57.664;39.686;2024-03-29T02:19:27;15.50;;;8.18;;
63342;SDS011;49465;57.664;39.686;2024-03-29T02:21:55;15.82;;;8.05;;
63342;SDS011;49465;57.664;39.686;2024-03-29T02:24:34;16.33;;;8.30;;
63342;SDS011;49465;57.664;39.686;2024-03-29T02:27:04;14.20;;;7.60;;
63342;SDS011;49465;57.664;39.686;2024-03-29T02:29:39;16.00;;;8.23;;
63342;SDS011;49465;57.664;39.686;2024-03-29T02:34:37;14.30;;;8.25;;
63342;SDS011;49465;57.664;39.686;2024-03-29T02:37:09;13.32;;;8.15;;
63342;SDS011;49465;57.664;39.686;2024-03-29T02:39:43;15.32;;;8.30;;
63342;SDS011;49465;57.664;39.686;2024-03-29T02:42:17;13.43;;;8.50;;
63342;SDS011;49465;57.664;39.686;2024-03-29T02:44:49;14.23;;;7.90;;
63342;SDS011;49465;57.664;39.686;2024-03-29T02:47:16;15.25;;;8.35;;
63342;SDS011;49465;57.664;39.686;2024-03-29T02:49:45;15.38;;;8.30;;
63342;SDS011;49465;57.664;39.686;2024-03-29T02:52:18;15.82;;;8.48;;
63342;SDS011;49465;57.664;39.686;2024-03-29T02:54:52;16.52;;;8.77;;
63342;SDS011;49465;57.664;39.686;2024-03-29T02:57:21;17.75;;;8.55;;
63342;SDS011;49465;57.664;39.686;2024-03-29T02:59:57;15.05;;;8.63;;
63342;SDS011;49465;57.664;39.686;2024-03-29T03:02:26;14.65;;;8.77;;
63342;SDS011;49465;57.664;39.686;2024-03-29T03:04:55;22.40;;;8.95;;
63342;SDS011;49465;57.664;39.686;2024-03-29T03:07:27;14.70;;;8.35;;
63342;SDS011;49465;57.664;39.686;2024-03-29T03:10:14;14.23;;;8.52;;
63342;SDS011;49465;57.664;39.686;2024-03-29T03:13:02;14.20;;;8.60;;
63342;SDS011;49465;57.664;39.686;2024-03-29T03:15:32;15.55;;;9.13;;
63342;SDS011;49465;57.664;39.686;2024-03-29T03:18:10;18.08;;;8.95;;
63342;SDS011;49465;57.664;39.686;2024-03-29T03:20:42;15.77;;;8.80;;
63342;SDS011;49465;57.664;39.686;2024-03-29T03:23:22;18.52;;;8.80;;
63342;SDS011;49465;57.664;39.686;2024-03-29T03:25:59;15.23;;;8.60;;
63342;SDS011;49465;57.664;39.686;2024-03-29T03:28:32;15.95;;;9.07;;
63342;SDS011;49465;57.664;39.686;2024-03-29T03:31:04;16.33;;;8.90;;
63342;SDS011;49465;57.664;39.686;2024-03-29T03:33:38;16.00;;;8.65;;
63342;SDS011;49465;57.664;39.686;2024-03-29T03:36:07;18.95;;;8.40;;
63342;SDS011;49465;57.664;39.686;2024-03-29T03:38:54;15.40;;;8.63;;
63342;SDS011;49465;57.664;39.686;2024-03-29T03:41:28;15.57;;;8.38;;
63342;SDS011;49465;57.664;39.686;2024-03-29T03:44:03;13.90;;;8.05;;
63342;SDS011;49465;57.664;39.686;2024-03-29T03:46:36;14.15;;;8.38;;
63342;SDS011;49465;57.664;39.686;2024-03-29T03:49:10;16.00;;;8.30;;
63342;SDS011;49465;57.664;39.686;2024-03-29T03:51:48;16.00;;;8.30;;
63342;SDS011;49465;57.664;39.686;2024-03-29T03:54:14;17.13;;;8.60;;
63342;SDS011;49465;57.664;39.686;2024-03-29T03:56:50;15.57;;;8.55;;
63342;SDS011;49465;57.664;39.686;2024-03-29T03:59:30;16.15;;;7.97;;
63342;SDS011;49465;57.664;39.686;2024-03-29T04:02:02;15.93;;;8.30;;
63342;SDS011;49465;57.664;39.686;2024-03-29T04:04:38;14.02;;;8.40;;
63342;SDS011;49465;57.664;39.686;2024-03-29T04:07:15;17.23;;;8.45;;
63342;SDS011;49465;57.664;39.686;2024-03-29T04:09:50;14.45;;;8.40;;
63342;SDS011;49465;57.664;39.686;2024-03-29T04:12:22;14.55;;;8.05;;
63342;SDS011;49465;57.664;39.686;2024-03-29T04:14:57;16.95;;;8.13;;
63342;SDS011;49465;57.664;39.686;2024-03-29T04:17:26;16.48;;;7.95;;
63342;SDS011;49465;57.664;39.686;2024-03-29T04:19:59;15.82;;;8.30;;
63342;SDS011;49465;57.664;39.686;2024-03-29T04:22:31;15.40;;;7.50;;
63342;SDS011;49465;57.664;39.686;2024-03-29T04:25:01;15.10;;;7.60;;
63342;SDS011;49465;57.664;39.686;2024-03-29T04:27:39;14.32;;;8.05;;
63342;SDS011;49465;57.664;39.686;2024-03-29T04:30:17;13.73;;;8.02;;
63342;SDS011;49465;57.664;39.686;2024-03-29T04:32:56;19.30;;;8.18;;
63342;SDS011;49465;57.664;39.686;2024-03-29T04:35:31;16.65;;;8.13;;
63342;SDS011;49465;57.664;39.686;2024-03-29T04:38:00;12.57;;;7.65;;
63342;SDS011;49465;57.664;39.686;2024-03-29T04:40:30;16.58;;;8.23;;
63342;SDS011;49465;57.664;39.686;2024-03-29T04:43:07;13.98;;;7.28;;
63342;SDS011;49465;57.664;39.686;2024-03-29T04:45:43;14.73;;;7.30;;
63342;SDS011;49465;57.664;39.686;2024-03-29T04:48:18;17.10;;;7.53;;
63342;SDS011;49465;57.664;39.686;2024-03-29T04:50:47;20.67;;;8.02;;
63342;SDS011;49465;57.664;39.686;2024-03-29T04:53:19;13.73;;;7.60;;
63342;SDS011;49465;57.664;39.686;2024-03-29T04:55:57;15.43;;;7.43;;
63342;SDS011;49465;57.664;39.686;2024-03-29T04:58:29;15.00;;;7.30;;
63342;SDS011;49465;57.664;39.686;2024-03-29T05:01:01;16.42;;;7.00;;
63342;SDS011;49465;57.664;39.686;2024-03-29T05:03:32;25.08;;;7.60;;
63342;SDS011;49465;57.664;39.686;2024-03-29T05:06:01;20.50;;;7.63;;
63342;SDS011;49465;57.664;39.686;2024-03-29T05:08:36;14.65;;;6.68;;
63342;SDS011;49465;57.664;39.686;2024-03-29T05:11:09;14.10;;;7.28;;
63342;SDS011;49465;57.664;39.686;2024-03-29T05:13:47;18.90;;;7.53;;
63342;SDS011;49465;57.664;39.686;2024-03-29T05:16:21;17.50;;;7.18;;
63342;SDS011;49465;57.664;39.686;2024-03-29T05:19:00;16.10;;;7.50;;
63342;SDS011;49465;57.664;39.686;2024-03-29T05:21:35;13.63;;;7.35;;
63342;SDS011;49465;57.664;39.686;2024-03-29T05:24:09;11.10;;;6.65;;
63342;SDS011;49465;57.664;39.686;2024-03-29T05:26:41;13.35;;;6.70;;
63342;SDS011;49465;57.664;39.686;2024-03-29T05:29:13;13.55;;;7.05;;
63342;SDS011;49465;57.664;39.686;2024-03-29T05:31:47;19.75;;;7.32;;
63342;SDS011;49465;57.664;39.686;2024-03-29T05:34:19;12.90;;;6.63;;
63342;SDS011;49465;57.664;39.686;2024-03-29T05:36:50;15.02;;;6.85;;
63342;SDS011;49465;57.664;39.686;2024-03-29T05:39:22;13.68;;;7.00;;
63342;SDS011;49465;57.664;39.686;2024-03-29T05:41:51;12.70;;;6.70;;
63342;SDS011;49465;57.664;39.686;2024-03-29T05:44:23;15.50;;;6.80;;
63342;SDS011;49465;57.664;39.686;2024-03-29T05:46:58;12.75;;;6.60;;
63342;SDS011;49465;57.664;39.686;2024-03-29T05:52:01;9.77;;;6.30;;
63342;SDS011;49465;57.664;39.686;2024-03-29T05:54:47;11.77;;;6.82;;
63342;SDS011;49465;57.664;39.686;2024-03-29T05:57:19;12.55;;;6.78;;
63342;SDS011;49465;57.664;39.686;2024-03-29T05:59:57;11.55;;;6.38;;
63342;SDS011;49465;57.664;39.686;2024-03-29T06:02:35;21.25;;;6.95;;
63342;SDS011;49465;57.664;39.686;2024-03-29T06:05:10;13.73;;;6.38;;
63342;SDS011;49465;57.664;39.686;2024-03-29T06:07:45;14.02;;;6.43;;
63342;SDS011;49465;57.664;39.686;2024-03-29T06:10:20;11.90;;;6.20;;
63342;SDS011;49465;57.664;39.686;2024-03-29T06:12:52;13.23;;;6.63;;
63342;SDS011;49465;57.664;39.686;2024-03-29T06:18:51;13.27;;;6.60;;
63342;SDS011;49465;57.664;39.686;2024-03-29T06:21:29;15.00;;;6.40;;
63342;SDS011;49465;57.664;39.686;2024-03-29T06:24:07;12.73;;;6.47;;
63342;SDS011;49465;57.664;39.686;2024-03-29T06:26:46;12.02;;;6.07;;
63342;SDS011;49465;57.664;39.686;2024-03-29T06:29:16;11.65;;;6.20;;
63342;SDS011;49465;57.664;39.686;2024-03-29T06:31:51;12.70;;;6.60;;
63342;SDS011;49465;57.664;39.686;2024-03-29T06:34:19;13.32;;;6.47;;
63342;SDS011;49465;57.664;39.686;2024-03-29T06:36:57;11.00;;;6.35;;
63342;SDS011;49465;57.664;39.686;2024-03-29T06:39:30;11.98;;;6.72;;
63342;SDS011;49465;57.664;39.686;2024-03-29T06:42:11;12.68;;;6.32;;
63342;SDS011;49465;57.664;39.686;2024-03-29T06:44:50;12.82;;;6.45;;
63342;SDS011;49465;57.664;39.686;2024-03-29T06:47:21;10.10;;;6.13;;
63342;SDS011;49465;57.664;39.686;2024-03-29T06:49:55;11.55;;;5.72;;
63342;SDS011;49465;57.664;39.686;2024-03-29T06:52:30;11.65;;;5.95;;
63342;SDS011;49465;57.664;39.686;2024-03-29T06:55:08;10.45;;;5.95;;
63342;SDS011;49465;57.664;39.686;2024-03-29T06:57:38;14.10;;;6.15;;
63342;SDS011;49465;57.664;39.686;2024-03-29T07:00:09;11.35;;;6.30;;
63342;SDS011;49465;57.664;39.686;2024-03-29T07:02:45;10.27;;;6.40;;
63342;SDS011;49465;57.664;39.686;2024-03-29T07:05:11;9.75;;;5.90;;
63342;SDS011;49465;57.664;39.686;2024-03-29T07:07:55;13.70;;;6.30;;
63342;SDS011;49465;57.664;39.686;2024-03-29T07:10:27;11.38;;;5.80;;
63342;SDS011;49465;57.664;39.686;2024-03-29T07:12:56;11.45;;;5.93;;
63342;SDS011;49465;57.664;39.686;2024-03-29T07:15:23;9.80;;;5.70;;
63342;SDS011;49465;57.664;39.686;2024-03-29T07:17:52;9.65;;;6.03;;
63342;SDS011;49465;57.664;39.686;2024-03-29T07:20:23;10.23;;;5.43;;
63342;SDS011;49465;57.664;39.686;2024-03-29T07:22:59;9.30;;;5.90;;
63342;SDS011;49465;57.664;39.686;2024-03-29T07:25:25;7.97;;;5.90;;
63342;SDS011;49465;57.664;39.686;2024-03-29T07:28:00;9.38;;;5.72;;
63342;SDS011;49465;57.664;39.686;2024-03-29T07:30:30;11.93;;;5.63;;
63342;SDS011;49465;57.664;39.686;2024-03-29T07:33:06;10.20;;;5.70;;
63342;SDS011;49465;57.664;39.686;2024-03-29T07:35:36;7.82;;;5.45;;
63342;SDS011;49465;57.664;39.686;2024-03-29T07:38:06;8.57;;;5.45;;
63342;SDS011;49465;57.664;39.686;2024-03-29T07:40:35;8.77;;;5.20;;
63342;SDS011;49465;57.664;39.686;2024-03-29T07:43:06;9.23;;;5.53;;
63342;SDS011;49465;57.664;39.686;2024-03-29T07:45:39;10.13;;;5.35;;
63342;SDS011;49465;57.664;39.686;2024-03-29T07:48:17;7.30;;;4.93;;
63342;SDS011;49465;57.664;39.686;2024-03-29T07:50:47;10.20;;;5.20;;
63342;SDS011;49465;57.664;39.686;2024-03-29T07:53:18;9.40;;;5.38;;
63342;SDS011;49465;57.664;39.686;2024-03-29T07:55:49;8.70;;;5.03;;
63342;SDS011;49465;57.664;39.686;2024-03-29T07:58:19;8.48;;;5.38;;
63342;SDS011;49465;57.664;39.686;2024-03-29T08:00:51;8.80;;;5.13;;
63342;SDS011;49465;57.664;39.686;2024-03-29T08:03:26;9.48;;;4.90;;
63342;SDS011;49465;57.664;39.686;2024-03-29T08:06:01;11.00;;;5.57;;
63342;SDS011;49465;57.664;39.686;2024-03-29T08:08:32;8.55;;;4.95;;
63342;SDS011;49465;57.664;39.686;2024-03-29T08:10:59;9.05;;;4.82;;
63342;SDS011;49465;57.664;39.686;2024-03-29T08:13:26;7.30;;;4.85;;
63342;SDS011;49465;57.664;39.686;2024-03-29T08:15:59;9.90;;;4.97;;
63342;SDS011;49465;57.664;39.686;2024-03-29T08:18:37;8.85;;;4.88;;
63342;SDS011;49465;57.664;39.686;2024-03-29T08:21:09;8.45;;;4.65;;
63342;SDS011;49465;57.664;39.686;2024-03-29T08:23:42;8.40;;;4.97;;
63342;SDS011;49465;57.664;39.686;2024-03-29T08:26:15;12.13;;;4.97;;
63342;SDS011;49465;57.664;39.686;2024-03-29T08:28:47;11.75;;;5.63;;
63342;SDS011;49465;57.664;39.686;2024-03-29T08:31:23;8.68;;;5.20;;
63342;SDS011;49465;57.664;39.686;2024-03-29T08:33:55;12.25;;;5.45;;
63342;SDS011;49465;57.664;39.686;2024-03-29T08:36:24;8.65;;;5.57;;
63342;SDS011;49465;57.664;39.686;2024-03-29T08:38:56;8.55;;;5.47;;
63342;SDS011;49465;57.664;39.686;2024-03-29T08:41:27;10.27;;;5.68;;
63342;SDS011;49465;57.664;39.686;2024-03-29T08:43:57;10.20;;;5.70;;
63342;SDS011;49465;57.664;39.686;2024-03-29T08:46:23;8.38;;;5.55;;
63342;SDS011;49465;57.664;39.686;2024-03-29T08:48:53;9.35;;;5.70;;
63342;SDS011;49465;57.664;39.686;2024-03-29T08:51:22;12.35;;;6.28;;
63342;SDS011;49465;57.664;39.686;2024-03-29T08:53:59;11.35;;;6.20;;
63342;SDS011;49465;57.664;39.686;2024-03-29T08:56:30;12.15;;;5.65;;
63342;SDS011;49465;57.664;39.686;2024-03-29T08:59:05;9.38;;;5.72;;
63342;SDS011;49465;57.664;39.686;2024-03-29T09:01:44;9.05;;;5.97;;
63342;SDS011;49465;57.664;39.686;2024-03-29T09:04:16;9.85;;;5.95;;
63342;SDS011;49465;57.664;39.686;2024-03-29T09:06:53;11.05;;;5.85;;
63342;SDS011;49465;57.664;39.686;2024-03-29T09:09:20;8.57;;;5.65;;
63342;SDS011;49465;57.664;39.686;2024-03-29T09:11:52;11.73;;;6.22;;
63342;SDS011;49465;57.664;39.686;2024-03-29T09:14:24;9.55;;;5.88;;
63342;SDS011;49465;57.664;39.686;2024-03-29T09:16:57;10.57;;;6.18;;
63342;SDS011;49465;57.664;39.686;2024-03-29T09:19:35;9.48;;;6.13;;
63342;SDS011;49465;57.664;39.686;2024-03-29T09:22:04;8.95;;;6.20;;
63342;SDS011;49465;57.664;39.686;2024-03-29T09:27:08;9.95;;;6.30;;
63342;SDS011;49465;57.664;39.686;2024-03-29T09:29:40;10.65;;;6.20;;
63342;SDS011;49465;57.664;39.686;2024-03-29T09:32:20;11.75;;;6.18;;
63342;SDS011;49465;57.664;39.686;2024-03-29T09:34:52;9.98;;;6.43;;
63342;SDS011;49465;57.664;39.686;2024-03-29T09:37:25;11.65;;;6.18;;
63342;SDS011;49465;57.664;39.686;2024-03-29T09:40:04;12.52;;;6.18;;
63342;SDS011;49465;57.664;39.686;2024-03-29T09:42:35;8.82;;;5.90;;
63342;SDS011;49465;57.664;39.686;2024-03-29T09:45:16;9.05;;;6.10;;
63342;SDS011;49465;57.664;39.686;2024-03-29T09:47:50;11.05;;;6.25;;
63342;SDS011;49465;57.664;39.686;2024-03-29T09:50:31;12.10;;;6.40;;
63342;SDS011;49465;57.664;39.686;2024-03-29T09:53:12;7.30;;;5.40;;
63342;SDS011;49465;57.664;39.686;2024-03-29T09:55:49;10.77;;;5.47;;
63342;SDS011;49465;57.664;39.686;2024-03-29T09:58:22;11.02;;;5.50;;
63342;SDS011;49465;57.664;39.686;2024-03-29T10:00:59;8.57;;;4.60;;
63342;SDS011;49465;57.664;39.686;2024-03-29T10:03:35;8.98;;;5.03;;
63342;SDS011;49465;57.664;39.686;2024-03-29T10:06:15;10.32;;;5.13;;
63342;SDS011;49465;57.664;39.686;2024-03-29T10:08:48;8.23;;;4.95;;
63342;SDS011;49465;57.664;39.686;2024-03-29T10:11:22;9.25;;;5.22;;
63342;SDS011;49465;57.664;39.686;2024-03-29T10:13:54;11.52;;;5.30;;
63342;SDS011;49465;57.664;39.686;2024-03-29T10:16:46;9.68;;;5.18;;
63342;SDS011;49465;57.664;39.686;2024-03-29T10:19:13;8.05;;;5.65;;
63342;SDS011;49465;57.664;39.686;2024-03-29T10:21:47;10.70;;;5.90;;
63342;SDS011;49465;57.664;39.686;2024-03-29T10:24:22;12.23;;;5.70;;
63342;SDS011;49465;57.664;39.686;2024-03-29T10:26:55;8.60;;;5.78;;
63342;SDS011;49465;57.664;39.686;2024-03-29T10:29:28;10.38;;;5.72;;
63342;SDS011;49465;57.664;39.686;2024-03-29T10:32:00;12.17;;;6.13;;
63342;SDS011;49465;57.664;39.686;2024-03-29T10:34:42;10.82;;;6.03;;
63342;SDS011;49465;57.664;39.686;2024-03-29T10:37:16;8.88;;;6.00;;
63342;SDS011;49465;57.664;39.686;2024-03-29T10:40:03;8.75;;;5.95;;
63342;SDS011;49465;57.664;39.686;2024-03-29T10:42:46;9.52;;;6.05;;
63342;SDS011;49465;57.664;39.686;2024-03-29T10:45:17;12.02;;;5.65;;
63342;SDS011;49465;57.664;39.686;2024-03-29T10:48:01;10.27;;;6.45;;
63342;SDS011;49465;57.664;39.686;2024-03-29T10:50:41;10.13;;;5.78;;
63342;SDS011;49465;57.664;39.686;2024-03-29T10:53:27;8.50;;;5.45;;
63342;SDS011;49465;57.664;39.686;2024-03-29T10:55:59;12.07;;;5.70;;
63342;SDS011;49465;57.664;39.686;2024-03-29T10:58:33;12.75;;;5.50;;
63342;SDS011;49465;57.664;39.686;2024-03-29T11:01:18;10.13;;;5.43;;
63342;SDS011;49465;57.664;39.686;2024-03-29T11:03:57;7.82;;;5.20;;
63342;SDS011;49465;57.664;39.686;2024-03-29T11:06:43;9.45;;;5.65;;
63342;SDS011;49465;57.664;39.686;2024-03-29T11:09:19;10.32;;;5.78;;
63342;SDS011;49465;57.664;39.686;2024-03-29T11:11:50;8.70;;;5.43;;
63342;SDS011;49465;57.664;39.686;2024-03-29T11:14:22;9.15;;;5.80;;
63342;SDS011;49465;57.664;39.686;2024-03-29T11:16:57;9.10;;;5.65;;
63342;SDS011;49465;57.664;39.686;2024-03-29T11:19:30;8.07;;;5.57;;
63342;SDS011;49465;57.664;39.686;2024-03-29T11:22:00;12.88;;;5.70;;
63342;SDS011;49465;57.664;39.686;2024-03-29T11:24:35;8.73;;;6.20;;
63342;SDS011;49465;57.664;39.686;2024-03-29T11:27:16;9.35;;;5.60;;
63342;SDS011;49465;57.664;39.686;2024-03-29T11:29:56;11.60;;;5.55;;
63342;SDS011;49465;57.664;39.686;2024-03-29T11:32:49;8.45;;;5.53;;
63342;SDS011;49465;57.664;39.686;2024-03-29T11:35:23;8.73;;;5.38;;
63342;SDS011;49465;57.664;39.686;2024-03-29T11:38:04;9.25;;;5.00;;
63342;SDS011;49465;57.664;39.686;2024-03-29T11:40:30;7.35;;;5.10;;
63342;SDS011;49465;57.664;39.686;2024-03-29T11:43:04;6.88;;;5.30;;
63342;SDS011;49465;57.664;39.686;2024-03-29T11:45:33;8.30;;;5.35;;
63342;SDS011;49465;57.664;39.686;2024-03-29T11:48:08;8.15;;;5.32;;
63342;SDS011;49465;57.664;39.686;2024-03-29T11:50:51;11.63;;;5.45;;
63342;SDS011;49465;57.664;39.686;2024-03-29T11:53:24;6.75;;;4.97;;
63342;SDS011;49465;57.664;39.686;2024-03-29T11:56:04;12.15;;;5.25;;
63342;SDS011;49465;57.664;39.686;2024-03-29T11:58:42;8.57;;;5.40;;
63342;SDS011;49465;57.664;39.686;2024-03-29T12:01:16;11.95;;;5.70;;
63342;SDS011;49465;57.664;39.686;2024-03-29T12:03:59;9.55;;;5.05;;
63342;SDS011;49465;57.664;39.686;2024-03-29T12:06:28;17.23;;;5.60;;
63342;SDS011;49465;57.664;39.686;2024-03-29T12:09:01;11.70;;;5.43;;
63342;SDS011;49465;57.664;39.686;2024-03-29T12:11:33;9.75;;;5.38;;
63342;SDS011;49465;57.664;39.686;2024-03-29T12:14:16;7.95;;;4.97;;
63342;SDS011;49465;57.664;39.686;2024-03-29T12:16:45;10.32;;;4.80;;
63342;SDS011;49465;57.664;39.686;2024-03-29T12:19:22;8.75;;;5.57;;
63342;SDS011;49465;57.664;39.686;2024-03-29T12:21:55;7.53;;;4.88;;
63342;SDS011;49465;57.664;39.686;2024-03-29T12:24:25;8.48;;;5.10;;
63342;SDS011;49465;57.664;39.686;2024-03-29T12:26:57;10.38;;;5.50;;
63342;SDS011;49465;57.664;39.686;2024-03-29T12:29:29;9.63;;;5.25;;
63342;SDS011;49465;57.664;39.686;2024-03-29T12:32:01;9.15;;;5.18;;
63342;SDS011;49465;57.664;39.686;2024-03-29T12:34:40;8.57;;;5.30;;
63342;SDS011;49465;57.664;39.686;2024-03-29T12:37:15;13.13;;;5.85;;
63342;SDS011;49465;57.664;39.686;2024-03-29T12:39:49;9.48;;;5.35;;
63342;SDS011;49465;57.664;39.686;2024-03-29T12:42:22;8.20;;;5.07;;
63342;SDS011;49465;57.664;39.686;2024-03-29T12:45:12;9.93;;;5.10;;
63342;SDS011;49465;57.664;39.686;2024-03-29T12:47:45;7.60;;;4.75;;
63342;SDS011;49465;57.664;39.686;2024-03-29T12:50:19;7.70;;;5.20;;
63342;SDS011;49465;57.664;39.686;2024-03-29T12:52:59;7.97;;;5.05;;
63342;SDS011;49465;57.664;39.686;2024-03-29T12:55:39;11.32;;;4.85;;
63342;SDS011;49465;57.664;39.686;2024-03-29T12:58:13;8.35;;;4.90;;
63342;SDS011;49465;57.664;39.686;2024-03-29T13:00:45;9.45;;;5.15;;
63342;SDS011;49465;57.664;39.686;2024-03-29T13:03:23;9.63;;;4.63;;
63342;SDS011;49465;57.664;39.686;2024-03-29T13:06:02;6.97;;;4.65;;
63342;SDS011;49465;57.664;39.686;2024-03-29T13:08:34;7.72;;;4.90;;
63342;SDS011;49465;57.664;39.686;2024-03-29T13:11:18;6.57;;;4.68;;
63342;SDS011;49465;57.664;39.686;2024-03-29T13:13:53;6.95;;;4.07;;
63342;SDS011;49465;57.664;39.686;2024-03-29T13:16:22;7.75;;;4.45;;
63342;SDS011;49465;57.664;39.686;2024-03-29T13:18:49;7.10;;;3.90;;
63342;SDS011;49465;57.664;39.686;2024-03-29T13:21:21;5.75;;;3.88;;
63342;SDS011;49465;57.664;39.686;2024-03-29T13:23:56;13.35;;;4.20;;
63342;SDS011;49465;57.664;39.686;2024-03-29T13:26:25;8.55;;;4.20;;
63342;SDS011;49465;57.664;39.686;2024-03-29T13:29:02;9.80;;;4.47;;
63342;SDS011;49465;57.664;39.686;2024-03-29T13:31:31;9.18;;;4.68;;
63342;SDS011;49465;57.664;39.686;2024-03-29T13:34:00;8.32;;;4.25;;
63342;SDS011;49465;57.664;39.686;2024-03-29T13:36:42;10.05;;;4.05;;
63342;SDS011;49465;57.664;39.686;2024-03-29T13:39:13;7.95;;;4.53;;
63342;SDS011;49465;57.664;39.686;2024-03-29T13:41:51;10.48;;;4.80;;
63342;SDS011;49465;57.664;39.686;2024-03-29T13:44:21;7.97;;;4.50;;
63342;SDS011;49465;57.664;39.686;2024-03-29T13:46:48;9.27;;;4.63;;
63342;SDS011;49465;57.664;39.686;2024-03-29T13:49:22;6.28;;;4.40;;
63342;SDS011;49465;57.664;39.686;2024-03-29T13:52:00;9.25;;;4.13;;
63342;SDS011;49465;57.664;39.686;2024-03-29T13:54:31;6.97;;;4.10;;
63342;SDS011;49465;57.664;39.686;2024-03-29T13:57:07;7.00;;;4.30;;
63342;SDS011;49465;57.664;39.686;2024-03-29T13:59:37;10.05;;;4.60;;
63342;SDS011;49465;57.664;39.686;2024-03-29T14:02:11;10.43;;;4.45;;
63342;SDS011;49465;57.664;39.686;2024-03-29T14:05:04;6.90;;;4.28;;
63342;SDS011;49465;57.664;39.686;2024-03-29T14:07:42;7.53;;;4.90;;
63342;SDS011;49465;57.664;39.686;2024-03-29T14:10:18;6.13;;;4.60;;
63342;SDS011;49465;57.664;39.686;2024-03-29T14:12:55;8.25;;;4.63;;
63342;SDS011;49465;57.664;39.686;2024-03-29T14:15:29;7.35;;;4.75;;
63342;SDS011;49465;57.664;39.686;2024-03-29T14:18:01;8.98;;;4.97;;
63342;SDS011;49465;57.664;39.686;2024-03-29T14:20:34;9.68;;;4.97;;
63342;SDS011;49465;57.664;39.686;2024-03-29T14:23:06;7.70;;;4.88;;
63342;SDS011;49465;57.664;39.686;2024-03-29T14:25:38;7.32;;;4.80;;
63342;SDS011;49465;57.664;39.686;2024-03-29T14:28:10;9.02;;;4.35;;
63342;SDS011;49465;57.664;39.686;2024-03-29T14:30:40;8.23;;;4.72;;
63342;SDS011;49465;57.664;39.686;2024-03-29T14:33:14;9.05;;;4.57;;
63342;SDS011;49465;57.664;39.686;2024-03-29T14:35:48;6.05;;;4.47;;
63342;SDS011;49465;57.664;39.686;2024-03-29T14:38:21;8.85;;;4.60;;
63342;SDS011;49465;57.664;39.686;2024-03-29T14:40:59;6.35;;;4.15;;
63342;SDS011;49465;57.664;39.686;2024-03-29T14:43:28;7.55;;;3.97;;
63342;SDS011;49465;57.664;39.686;2024-03-29T14:46:03;9.45;;;4.20;;
63342;SDS011;49465;57.664;39.686;2024-03-29T14:48:37;7.38;;;4.00;;
63342;SDS011;49465;57.664;39.686;2024-03-29T14:51:11;9.18;;;4.50;;
63342;SDS011;49465;57.664;39.686;2024-03-29T14:53:43;7.75;;;4.10;;
63342;SDS011;49465;57.664;39.686;2024-03-29T14:56:20;7.88;;;4.22;;
63342;SDS011;49465;57.664;39.686;2024-03-29T14:58:49;7.45;;;4.30;;
63342;SDS011;49465;57.664;39.686;2024-03-29T15:01:25;6.40;;;4.60;;
63342;SDS011;49465;57.664;39.686;2024-03-29T15:03:57;9.50;;;4.30;;
63342;SDS011;49465;57.664;39.686;2024-03-29T15:06:29;6.70;;;4.03;;
63342;SDS011;49465;57.664;39.686;2024-03-29T15:08:59;5.97;;;4.07;;
63342;SDS011;49465;57.664;39.686;2024-03-29T15:11:34;7.53;;;4.05;;
63342;SDS011;49465;57.664;39.686;2024-03-29T15:14:15;5.57;;;3.80;;
63342;SDS011;49465;57.664;39.686;2024-03-29T15:16:47;6.88;;;4.20;;